sensor_id;sensor_type;location;lat;lon;timestamp;P1;durP1;ratioP1;P2;durP2;ratioP2
61905;SDS011;47863;55.766;37.672;2023-05-23T00:01:14;6.55;;;3.05;;
61905;SDS011;47863;55.766;37.672;2023-05-23T00:03:41;7.90;;;3.45;;
61905;SDS011;47863;55.766;37.672;2023-05-23T00:06:07;6.53;;;3.65;;
61905;SDS011;47863;55.766;37.672;2023-05-23T00:08:33;9.32;;;3.83;;
61905;SDS011;47863;55.766;37.672;2023-05-23T00:10:58;6.10;;;3.45;;
61905;SDS011;47863;55.766;37.672;2023-05-23T00:13:24;5.70;;;3.40;;
61905;SDS011;47863;55.766;37.672;2023-05-23T00:15:51;7.97;;;3.65;;
61905;SDS011;47863;55.766;37.672;2023-05-23T00:18:16;7.00;;;3.70;;
61905;SDS011;47863;55.766;37.672;2023-05-23T00:20:43;6.13;;;3.55;;
61905;SDS011;47863;55.766;37.672;2023-05-23T00:23:10;7.47;;;3.55;;
61905;SDS011;47863;55.766;37.672;2023-05-23T00:25:43;5.60;;;3.90;;
61905;SDS011;47863;55.766;37.672;2023-05-23T00:28:12;5.65;;;3.40;;
61905;SDS011;47863;55.766;37.672;2023-05-23T00:30:38;5.90;;;3.72;;
61905;SDS011;47863;55.766;37.672;2023-05-23T00:33:04;6.50;;;3.78;;
61905;SDS011;47863;55.766;37.672;2023-05-23T00:35:30;6.45;;;3.60;;
61905;SDS011;47863;55.766;37.672;2023-05-23T00:37:56;7.53;;;3.72;;
61905;SDS011;47863;55.766;37.672;2023-05-23T00:40:21;6.85;;;3.63;;
61905;SDS011;47863;55.766;37.672;2023-05-23T00:42:47;11.65;;;3.90;;
61905;SDS011;47863;55.766;37.672;2023-05-23T00:45:13;8.85;;;4.00;;
61905;SDS011;47863;55.766;37.672;2023-05-23T00:47:40;5.97;;;3.75;;
61905;SDS011;47863;55.766;37.672;2023-05-23T00:50:15;6.50;;;3.75;;
61905;SDS011;47863;55.766;37.672;2023-05-23T00:52:42;7.85;;;3.90;;
61905;SDS011;47863;55.766;37.672;2023-05-23T00:55:10;6.18;;;3.70;;
61905;SDS011;47863;55.766;37.672;2023-05-23T00:57:37;8.45;;;3.83;;
61905;SDS011;47863;55.766;37.672;2023-05-23T01:00:08;9.23;;;4.10;;
61905;SDS011;47863;55.766;37.672;2023-05-23T01:02:43;6.53;;;3.60;;
61905;SDS011;47863;55.766;37.672;2023-05-23T01:05:11;7.78;;;4.10;;
61905;SDS011;47863;55.766;37.672;2023-05-23T01:07:45;9.07;;;3.67;;
61905;SDS011;47863;55.766;37.672;2023-05-23T01:10:15;6.65;;;4.40;;
61905;SDS011;47863;55.766;37.672;2023-05-23T01:12:54;8.45;;;4.32;;
61905;SDS011;47863;55.766;37.672;2023-05-23T01:15:39;6.90;;;4.18;;
61905;SDS011;47863;55.766;37.672;2023-05-23T01:18:15;8.63;;;4.50;;
61905;SDS011;47863;55.766;37.672;2023-05-23T01:20:51;6.85;;;3.67;;
61905;SDS011;47863;55.766;37.672;2023-05-23T01:31:16;6.65;;;3.75;;
61905;SDS011;47863;55.766;37.672;2023-05-23T01:33:42;8.82;;;4.97;;
61905;SDS011;47863;55.766;37.672;2023-05-23T01:36:09;9.63;;;5.35;;
61905;SDS011;47863;55.766;37.672;2023-05-23T01:38:38;7.57;;;4.40;;
61905;SDS011;47863;55.766;37.672;2023-05-23T01:41:03;10.93;;;5.97;;
61905;SDS011;47863;55.766;37.672;2023-05-23T01:43:29;9.55;;;4.68;;
61905;SDS011;47863;55.766;37.672;2023-05-23T01:45:55;9.07;;;4.72;;
61905;SDS011;47863;55.766;37.672;2023-05-23T01:48:22;8.73;;;4.95;;
61905;SDS011;47863;55.766;37.672;2023-05-23T01:50:50;7.38;;;4.40;;
61905;SDS011;47863;55.766;37.672;2023-05-23T01:53:17;8.40;;;5.05;;
61905;SDS011;47863;55.766;37.672;2023-05-23T01:55:45;9.75;;;5.03;;
61905;SDS011;47863;55.766;37.672;2023-05-23T01:58:11;9.40;;;4.97;;
61905;SDS011;47863;55.766;37.672;2023-05-23T02:00:37;9.93;;;5.18;;
61905;SDS011;47863;55.766;37.672;2023-05-23T02:03:03;10.25;;;5.68;;
61905;SDS011;47863;55.766;37.672;2023-05-23T02:05:30;9.90;;;5.47;;
61905;SDS011;47863;55.766;37.672;2023-05-23T02:07:55;14.50;;;4.90;;
61905;SDS011;47863;55.766;37.672;2023-05-23T02:10:21;9.05;;;5.43;;
61905;SDS011;47863;55.766;37.672;2023-05-23T02:12:47;9.85;;;4.90;;
61905;SDS011;47863;55.766;37.672;2023-05-23T02:15:12;8.80;;;4.88;;
61905;SDS011;47863;55.766;37.672;2023-05-23T02:17:38;12.00;;;5.93;;
61905;SDS011;47863;55.766;37.672;2023-05-23T02:20:06;9.70;;;4.85;;
61905;SDS011;47863;55.766;37.672;2023-05-23T02:22:32;9.30;;;5.10;;
61905;SDS011;47863;55.766;37.672;2023-05-23T02:24:58;7.00;;;4.70;;
61905;SDS011;47863;55.766;37.672;2023-05-23T02:27:23;7.05;;;4.30;;
61905;SDS011;47863;55.766;37.672;2023-05-23T02:29:49;8.80;;;5.38;;
61905;SDS011;47863;55.766;37.672;2023-05-23T02:32:15;13.68;;;5.43;;
61905;SDS011;47863;55.766;37.672;2023-05-23T02:34:40;11.00;;;5.35;;
61905;SDS011;47863;55.766;37.672;2023-05-23T02:37:06;11.85;;;5.75;;
61905;SDS011;47863;55.766;37.672;2023-05-23T02:39:33;12.10;;;5.15;;
61905;SDS011;47863;55.766;37.672;2023-05-23T02:42:01;10.50;;;5.30;;
61905;SDS011;47863;55.766;37.672;2023-05-23T02:44:27;13.10;;;6.32;;
61905;SDS011;47863;55.766;37.672;2023-05-23T02:46:52;9.10;;;5.68;;
61905;SDS011;47863;55.766;37.672;2023-05-23T02:49:18;10.07;;;5.45;;
61905;SDS011;47863;55.766;37.672;2023-05-23T02:51:43;10.75;;;5.65;;
61905;SDS011;47863;55.766;37.672;2023-05-23T02:54:09;9.55;;;5.47;;
61905;SDS011;47863;55.766;37.672;2023-05-23T02:56:35;8.25;;;5.10;;
61905;SDS011;47863;55.766;37.672;2023-05-23T02:59:00;11.15;;;5.70;;
61905;SDS011;47863;55.766;37.672;2023-05-23T03:01:26;10.82;;;5.32;;
61905;SDS011;47863;55.766;37.672;2023-05-23T03:03:52;8.23;;;5.07;;
61905;SDS011;47863;55.766;37.672;2023-05-23T03:06:17;12.13;;;5.75;;
61905;SDS011;47863;55.766;37.672;2023-05-23T03:08:43;11.52;;;5.93;;
61905;SDS011;47863;55.766;37.672;2023-05-23T03:11:09;9.30;;;5.28;;
61905;SDS011;47863;55.766;37.672;2023-05-23T03:13:34;11.18;;;5.80;;
61905;SDS011;47863;55.766;37.672;2023-05-23T03:16:00;9.02;;;4.85;;
61905;SDS011;47863;55.766;37.672;2023-05-23T03:18:27;10.38;;;5.43;;
61905;SDS011;47863;55.766;37.672;2023-05-23T03:20:52;10.85;;;5.78;;
61905;SDS011;47863;55.766;37.672;2023-05-23T03:23:18;10.07;;;5.13;;
61905;SDS011;47863;55.766;37.672;2023-05-23T03:25:44;11.65;;;5.53;;
61905;SDS011;47863;55.766;37.672;2023-05-23T03:28:10;11.10;;;5.85;;
61905;SDS011;47863;55.766;37.672;2023-05-23T03:30:38;8.25;;;5.10;;
61905;SDS011;47863;55.766;37.672;2023-05-23T03:33:04;8.50;;;4.93;;
61905;SDS011;47863;55.766;37.672;2023-05-23T03:35:31;9.60;;;5.40;;
61905;SDS011;47863;55.766;37.672;2023-05-23T03:37:56;9.85;;;5.18;;
61905;SDS011;47863;55.766;37.672;2023-05-23T03:40:22;8.52;;;5.22;;
61905;SDS011;47863;55.766;37.672;2023-05-23T03:42:47;8.88;;;4.53;;
61905;SDS011;47863;55.766;37.672;2023-05-23T03:45:25;9.25;;;5.72;;
61905;SDS011;47863;55.766;37.672;2023-05-23T03:47:51;9.23;;;5.07;;
61905;SDS011;47863;55.766;37.672;2023-05-23T03:50:16;8.40;;;4.57;;
61905;SDS011;47863;55.766;37.672;2023-05-23T03:52:42;8.77;;;4.80;;
61905;SDS011;47863;55.766;37.672;2023-05-23T03:55:07;7.93;;;4.43;;
61905;SDS011;47863;55.766;37.672;2023-05-23T03:57:33;8.85;;;4.43;;
61905;SDS011;47863;55.766;37.672;2023-05-23T03:59:59;11.30;;;5.55;;
61905;SDS011;47863;55.766;37.672;2023-05-23T04:02:24;6.82;;;4.40;;
61905;SDS011;47863;55.766;37.672;2023-05-23T04:04:50;7.85;;;4.72;;
61905;SDS011;47863;55.766;37.672;2023-05-23T04:07:15;11.90;;;5.10;;
61905;SDS011;47863;55.766;37.672;2023-05-23T04:09:41;9.90;;;5.20;;
61905;SDS011;47863;55.766;37.672;2023-05-23T04:12:07;8.38;;;4.72;;
61905;SDS011;47863;55.766;37.672;2023-05-23T04:14:33;9.93;;;4.72;;
61905;SDS011;47863;55.766;37.672;2023-05-23T04:16:59;8.25;;;5.07;;
61905;SDS011;47863;55.766;37.672;2023-05-23T04:19:25;6.50;;;4.40;;
61905;SDS011;47863;55.766;37.672;2023-05-23T04:21:50;8.00;;;4.82;;
61905;SDS011;47863;55.766;37.672;2023-05-23T04:24:16;7.00;;;4.20;;
61905;SDS011;47863;55.766;37.672;2023-05-23T04:26:41;11.77;;;5.05;;
61905;SDS011;47863;55.766;37.672;2023-05-23T04:29:07;12.18;;;5.28;;
61905;SDS011;47863;55.766;37.672;2023-05-23T04:31:32;9.60;;;5.45;;
61905;SDS011;47863;55.766;37.672;2023-05-23T04:33:59;9.60;;;5.25;;
61905;SDS011;47863;55.766;37.672;2023-05-23T04:36:24;10.18;;;4.30;;
61905;SDS011;47863;55.766;37.672;2023-05-23T04:38:50;13.35;;;4.53;;
61905;SDS011;47863;55.766;37.672;2023-05-23T04:41:16;6.13;;;4.22;;
61905;SDS011;47863;55.766;37.672;2023-05-23T04:43:47;10.05;;;5.97;;
61905;SDS011;47863;55.766;37.672;2023-05-23T04:46:18;8.85;;;4.05;;
61905;SDS011;47863;55.766;37.672;2023-05-23T04:48:51;8.52;;;3.92;;
61905;SDS011;47863;55.766;37.672;2023-05-23T04:51:17;8.82;;;4.35;;
61905;SDS011;47863;55.766;37.672;2023-05-23T04:53:46;9.30;;;4.20;;
61905;SDS011;47863;55.766;37.672;2023-05-23T04:56:12;10.52;;;4.07;;
61905;SDS011;47863;55.766;37.672;2023-05-23T04:58:38;10.77;;;4.13;;
61905;SDS011;47863;55.766;37.672;2023-05-23T05:01:06;7.40;;;4.22;;
61905;SDS011;47863;55.766;37.672;2023-05-23T05:03:33;10.45;;;5.13;;
61905;SDS011;47863;55.766;37.672;2023-05-23T05:05:59;9.60;;;4.20;;
61905;SDS011;47863;55.766;37.672;2023-05-23T05:08:26;6.32;;;3.80;;
61905;SDS011;47863;55.766;37.672;2023-05-23T05:10:52;8.43;;;4.25;;
61905;SDS011;47863;55.766;37.672;2023-05-23T05:13:21;6.85;;;4.03;;
61905;SDS011;47863;55.766;37.672;2023-05-23T05:15:46;7.72;;;3.75;;
61905;SDS011;47863;55.766;37.672;2023-05-23T05:18:12;6.13;;;3.40;;
61905;SDS011;47863;55.766;37.672;2023-05-23T05:20:38;6.18;;;3.50;;
61905;SDS011;47863;55.766;37.672;2023-05-23T05:23:03;6.55;;;4.22;;
61905;SDS011;47863;55.766;37.672;2023-05-23T05:25:29;7.57;;;4.15;;
61905;SDS011;47863;55.766;37.672;2023-05-23T05:28:00;6.18;;;4.03;;
61905;SDS011;47863;55.766;37.672;2023-05-23T05:30:32;8.32;;;3.70;;
61905;SDS011;47863;55.766;37.672;2023-05-23T05:33:02;6.38;;;3.05;;
61905;SDS011;47863;55.766;37.672;2023-05-23T05:35:29;7.45;;;4.55;;
61905;SDS011;47863;55.766;37.672;2023-05-23T05:37:56;6.68;;;4.13;;
61905;SDS011;47863;55.766;37.672;2023-05-23T05:40:22;9.80;;;4.40;;
61905;SDS011;47863;55.766;37.672;2023-05-23T05:42:48;5.47;;;3.45;;
61905;SDS011;47863;55.766;37.672;2023-05-23T05:45:14;5.50;;;3.55;;
61905;SDS011;47863;55.766;37.672;2023-05-23T05:47:39;6.63;;;3.65;;
61905;SDS011;47863;55.766;37.672;2023-05-23T05:50:06;7.97;;;3.67;;
61905;SDS011;47863;55.766;37.672;2023-05-23T05:52:33;6.28;;;3.42;;
61905;SDS011;47863;55.766;37.672;2023-05-23T05:55:06;7.32;;;3.30;;
61905;SDS011;47863;55.766;37.672;2023-05-23T05:57:33;12.18;;;4.35;;
61905;SDS011;47863;55.766;37.672;2023-05-23T05:59:58;7.57;;;3.45;;
61905;SDS011;47863;55.766;37.672;2023-05-23T06:02:24;7.88;;;4.07;;
61905;SDS011;47863;55.766;37.672;2023-05-23T06:04:50;6.43;;;3.65;;
61905;SDS011;47863;55.766;37.672;2023-05-23T06:07:16;6.10;;;3.22;;
61905;SDS011;47863;55.766;37.672;2023-05-23T06:09:42;4.75;;;3.45;;
61905;SDS011;47863;55.766;37.672;2023-05-23T06:12:07;5.03;;;3.30;;
61905;SDS011;47863;55.766;37.672;2023-05-23T06:14:33;6.57;;;3.40;;
61905;SDS011;47863;55.766;37.672;2023-05-23T06:16:58;6.43;;;3.63;;
61905;SDS011;47863;55.766;37.672;2023-05-23T06:19:24;4.70;;;3.05;;
61905;SDS011;47863;55.766;37.672;2023-05-23T06:21:50;9.55;;;3.78;;
61905;SDS011;47863;55.766;37.672;2023-05-23T06:24:15;8.15;;;4.15;;
61905;SDS011;47863;55.766;37.672;2023-05-23T06:26:41;8.25;;;3.63;;
61905;SDS011;47863;55.766;37.672;2023-05-23T06:29:06;5.13;;;3.20;;
61905;SDS011;47863;55.766;37.672;2023-05-23T06:31:32;9.05;;;3.28;;
61905;SDS011;47863;55.766;37.672;2023-05-23T06:33:58;8.02;;;3.63;;
61905;SDS011;47863;55.766;37.672;2023-05-23T06:36:23;6.60;;;3.72;;
61905;SDS011;47863;55.766;37.672;2023-05-23T06:38:49;5.45;;;3.17;;
61905;SDS011;47863;55.766;37.672;2023-05-23T06:41:14;6.15;;;3.45;;
61905;SDS011;47863;55.766;37.672;2023-05-23T06:43:40;6.88;;;4.10;;
61905;SDS011;47863;55.766;37.672;2023-05-23T06:46:05;5.50;;;3.30;;
61905;SDS011;47863;55.766;37.672;2023-05-23T06:48:31;7.47;;;3.20;;
61905;SDS011;47863;55.766;37.672;2023-05-23T06:50:57;5.13;;;3.22;;
61905;SDS011;47863;55.766;37.672;2023-05-23T06:53:22;7.65;;;3.25;;
61905;SDS011;47863;55.766;37.672;2023-05-23T06:55:48;5.43;;;3.45;;
61905;SDS011;47863;55.766;37.672;2023-05-23T06:58:14;5.53;;;3.15;;
61905;SDS011;47863;55.766;37.672;2023-05-23T07:00:39;9.13;;;2.92;;
61905;SDS011;47863;55.766;37.672;2023-05-23T07:03:05;4.50;;;3.15;;
61905;SDS011;47863;55.766;37.672;2023-05-23T07:05:31;7.80;;;3.15;;
61905;SDS011;47863;55.766;37.672;2023-05-23T07:07:58;5.85;;;3.38;;
61905;SDS011;47863;55.766;37.672;2023-05-23T07:10:24;6.57;;;3.25;;
61905;SDS011;47863;55.766;37.672;2023-05-23T07:12:50;4.57;;;3.20;;
61905;SDS011;47863;55.766;37.672;2023-05-23T07:15:16;6.82;;;2.90;;
61905;SDS011;47863;55.766;37.672;2023-05-23T07:17:42;6.68;;;3.10;;
61905;SDS011;47863;55.766;37.672;2023-05-23T07:20:08;5.53;;;3.55;;
61905;SDS011;47863;55.766;37.672;2023-05-23T07:22:35;6.55;;;2.63;;
61905;SDS011;47863;55.766;37.672;2023-05-23T07:25:00;7.43;;;3.72;;
61905;SDS011;47863;55.766;37.672;2023-05-23T07:27:27;4.97;;;2.97;;
61905;SDS011;47863;55.766;37.672;2023-05-23T07:29:53;6.95;;;3.28;;
61905;SDS011;47863;55.766;37.672;2023-05-23T07:32:18;6.35;;;3.10;;
61905;SDS011;47863;55.766;37.672;2023-05-23T07:34:44;6.68;;;3.28;;
61905;SDS011;47863;55.766;37.672;2023-05-23T07:37:10;5.90;;;3.03;;
61905;SDS011;47863;55.766;37.672;2023-05-23T07:39:36;6.63;;;3.13;;
61905;SDS011;47863;55.766;37.672;2023-05-23T07:42:01;7.25;;;2.85;;
61905;SDS011;47863;55.766;37.672;2023-05-23T07:44:27;10.48;;;3.53;;
61905;SDS011;47863;55.766;37.672;2023-05-23T07:46:53;5.43;;;2.90;;
61905;SDS011;47863;55.766;37.672;2023-05-23T07:49:19;4.60;;;2.70;;
61905;SDS011;47863;55.766;37.672;2023-05-23T07:51:45;5.25;;;2.60;;
61905;SDS011;47863;55.766;37.672;2023-05-23T07:54:11;6.00;;;3.10;;
61905;SDS011;47863;55.766;37.672;2023-05-23T07:56:36;6.40;;;2.85;;
61905;SDS011;47863;55.766;37.672;2023-05-23T07:59:05;5.40;;;2.65;;
61905;SDS011;47863;55.766;37.672;2023-05-23T08:01:32;6.55;;;2.85;;
61905;SDS011;47863;55.766;37.672;2023-05-23T08:03:58;8.95;;;4.03;;
61905;SDS011;47863;55.766;37.672;2023-05-23T08:06:24;5.70;;;2.40;;
61905;SDS011;47863;55.766;37.672;2023-05-23T08:08:49;7.13;;;2.80;;
61905;SDS011;47863;55.766;37.672;2023-05-23T08:11:15;6.97;;;3.25;;
61905;SDS011;47863;55.766;37.672;2023-05-23T08:13:41;7.18;;;2.60;;
61905;SDS011;47863;55.766;37.672;2023-05-23T08:16:06;6.53;;;3.15;;
61905;SDS011;47863;55.766;37.672;2023-05-23T08:18:32;5.68;;;2.97;;
61905;SDS011;47863;55.766;37.672;2023-05-23T08:20:58;7.97;;;3.50;;
61905;SDS011;47863;55.766;37.672;2023-05-23T08:23:23;5.50;;;2.88;;
61905;SDS011;47863;55.766;37.672;2023-05-23T08:25:50;5.70;;;3.10;;
61905;SDS011;47863;55.766;37.672;2023-05-23T08:28:17;8.10;;;3.05;;
61905;SDS011;47863;55.766;37.672;2023-05-23T08:30:42;7.60;;;3.30;;
61905;SDS011;47863;55.766;37.672;2023-05-23T08:33:08;10.70;;;3.28;;
61905;SDS011;47863;55.766;37.672;2023-05-23T08:35:33;5.00;;;2.65;;
61905;SDS011;47863;55.766;37.672;2023-05-23T08:38:04;6.97;;;3.55;;
61905;SDS011;47863;55.766;37.672;2023-05-23T08:40:31;3.55;;;2.55;;
61905;SDS011;47863;55.766;37.672;2023-05-23T08:42:58;6.55;;;2.90;;
61905;SDS011;47863;55.766;37.672;2023-05-23T08:45:24;6.47;;;2.97;;
61905;SDS011;47863;55.766;37.672;2023-05-23T08:47:50;6.72;;;2.67;;
61905;SDS011;47863;55.766;37.672;2023-05-23T08:50:17;6.22;;;2.75;;
61905;SDS011;47863;55.766;37.672;2023-05-23T08:52:45;7.07;;;2.08;;
61905;SDS011;47863;55.766;37.672;2023-05-23T08:55:17;5.70;;;2.40;;
61905;SDS011;47863;55.766;37.672;2023-05-23T08:57:43;9.48;;;2.72;;
61905;SDS011;47863;55.766;37.672;2023-05-23T09:00:13;3.90;;;2.10;;
61905;SDS011;47863;55.766;37.672;2023-05-23T09:02:43;4.00;;;2.28;;
61905;SDS011;47863;55.766;37.672;2023-05-23T09:05:10;6.38;;;2.58;;
61905;SDS011;47863;55.766;37.672;2023-05-23T09:07:39;5.10;;;2.65;;
61905;SDS011;47863;55.766;37.672;2023-05-23T09:10:06;4.93;;;2.13;;
61905;SDS011;47863;55.766;37.672;2023-05-23T09:12:33;4.60;;;2.20;;
61905;SDS011;47863;55.766;37.672;2023-05-23T09:15:01;6.32;;;2.78;;
61905;SDS011;47863;55.766;37.672;2023-05-23T09:17:30;5.25;;;2.03;;
61905;SDS011;47863;55.766;37.672;2023-05-23T09:19:58;6.50;;;2.28;;
61905;SDS011;47863;55.766;37.672;2023-05-23T09:22:25;3.38;;;1.63;;
61905;SDS011;47863;55.766;37.672;2023-05-23T09:24:51;3.75;;;1.58;;
61905;SDS011;47863;55.766;37.672;2023-05-23T09:27:18;3.50;;;2.17;;
61905;SDS011;47863;55.766;37.672;2023-05-23T09:29:43;3.83;;;2.05;;
61905;SDS011;47863;55.766;37.672;2023-05-23T09:32:11;4.05;;;2.63;;
61905;SDS011;47863;55.766;37.672;2023-05-23T09:34:57;4.13;;;1.90;;
61905;SDS011;47863;55.766;37.672;2023-05-23T09:37:45;3.83;;;2.10;;
61905;SDS011;47863;55.766;37.672;2023-05-23T09:40:11;5.35;;;2.60;;
61905;SDS011;47863;55.766;37.672;2023-05-23T09:42:42;7.80;;;2.60;;
61905;SDS011;47863;55.766;37.672;2023-05-23T09:45:12;4.28;;;2.53;;
61905;SDS011;47863;55.766;37.672;2023-05-23T09:47:38;3.55;;;2.40;;
61905;SDS011;47863;55.766;37.672;2023-05-23T09:50:04;4.95;;;2.90;;
61905;SDS011;47863;55.766;37.672;2023-05-23T09:52:35;4.55;;;2.50;;
61905;SDS011;47863;55.766;37.672;2023-05-23T09:55:02;5.28;;;2.63;;
61905;SDS011;47863;55.766;37.672;2023-05-23T09:57:30;3.92;;;2.40;;
61905;SDS011;47863;55.766;37.672;2023-05-23T10:00:02;5.88;;;2.65;;
61905;SDS011;47863;55.766;37.672;2023-05-23T10:05:07;3.65;;;2.50;;
61905;SDS011;47863;55.766;37.672;2023-05-23T10:07:36;3.88;;;2.38;;
61905;SDS011;47863;55.766;37.672;2023-05-23T10:10:03;5.15;;;2.58;;
61905;SDS011;47863;55.766;37.672;2023-05-23T10:12:43;4.07;;;2.45;;
61905;SDS011;47863;55.766;37.672;2023-05-23T10:15:14;5.28;;;2.55;;
61905;SDS011;47863;55.766;37.672;2023-05-23T10:20:17;4.72;;;2.17;;
61905;SDS011;47863;55.766;37.672;2023-05-23T10:22:49;6.07;;;3.15;;
61905;SDS011;47863;55.766;37.672;2023-05-23T10:25:15;5.32;;;2.65;;
61905;SDS011;47863;55.766;37.672;2023-05-23T10:27:41;3.30;;;2.17;;
61905;SDS011;47863;55.766;37.672;2023-05-23T10:30:07;7.00;;;2.65;;
61905;SDS011;47863;55.766;37.672;2023-05-23T10:32:34;4.40;;;2.50;;
61905;SDS011;47863;55.766;37.672;2023-05-23T10:35:20;5.13;;;2.80;;
61905;SDS011;47863;55.766;37.672;2023-05-23T10:45:50;6.13;;;2.70;;
61905;SDS011;47863;55.766;37.672;2023-05-23T10:48:20;5.78;;;2.88;;
61905;SDS011;47863;55.766;37.672;2023-05-23T10:51:00;7.45;;;2.88;;
61905;SDS011;47863;55.766;37.672;2023-05-23T10:53:37;5.55;;;2.50;;
61905;SDS011;47863;55.766;37.672;2023-05-23T10:56:08;4.20;;;2.30;;
61905;SDS011;47863;55.766;37.672;2023-05-23T10:58:36;3.90;;;2.33;;
61905;SDS011;47863;55.766;37.672;2023-05-23T11:03:34;6.53;;;2.90;;
61905;SDS011;47863;55.766;37.672;2023-05-23T11:09:12;4.22;;;2.45;;
61905;SDS011;47863;55.766;37.672;2023-05-23T11:14:19;6.55;;;2.67;;
61905;SDS011;47863;55.766;37.672;2023-05-23T11:17:13;6.10;;;2.72;;
61905;SDS011;47863;55.766;37.672;2023-05-23T11:20:23;5.38;;;3.05;;
61905;SDS011;47863;55.766;37.672;2023-05-23T11:22:34;6.15;;;2.88;;
61905;SDS011;47863;55.766;37.672;2023-05-23T11:25:05;5.20;;;2.95;;
61905;SDS011;47863;55.766;37.672;2023-05-23T11:27:33;5.25;;;2.95;;
61905;SDS011;47863;55.766;37.672;2023-05-23T11:30:10;4.32;;;2.60;;
61905;SDS011;47863;55.766;37.672;2023-05-23T11:32:38;5.38;;;2.63;;
61905;SDS011;47863;55.766;37.672;2023-05-23T11:35:11;5.18;;;3.10;;
61905;SDS011;47863;55.766;37.672;2023-05-23T11:37:36;4.30;;;2.30;;
61905;SDS011;47863;55.766;37.672;2023-05-23T11:42:54;4.38;;;3.05;;
61905;SDS011;47863;55.766;37.672;2023-05-23T11:45:20;8.00;;;3.03;;
61905;SDS011;47863;55.766;37.672;2023-05-23T11:47:46;5.85;;;3.30;;
61905;SDS011;47863;55.766;37.672;2023-05-23T11:50:12;4.78;;;2.55;;
61905;SDS011;47863;55.766;37.672;2023-05-23T11:52:38;4.82;;;3.13;;
61905;SDS011;47863;55.766;37.672;2023-05-23T11:55:05;5.55;;;3.08;;
61905;SDS011;47863;55.766;37.672;2023-05-23T11:57:31;5.55;;;3.13;;
61905;SDS011;47863;55.766;37.672;2023-05-23T11:59:57;6.53;;;3.65;;
61905;SDS011;47863;55.766;37.672;2023-05-23T12:02:23;6.25;;;3.40;;
61905;SDS011;47863;55.766;37.672;2023-05-23T12:04:52;5.03;;;3.20;;
61905;SDS011;47863;55.766;37.672;2023-05-23T12:07:18;8.98;;;3.95;;
61905;SDS011;47863;55.766;37.672;2023-05-23T12:09:44;7.97;;;4.25;;
61905;SDS011;47863;55.766;37.672;2023-05-23T12:12:11;5.45;;;3.25;;
61905;SDS011;47863;55.766;37.672;2023-05-23T12:14:37;5.05;;;2.83;;
61905;SDS011;47863;55.766;37.672;2023-05-23T12:17:11;9.27;;;4.00;;
61905;SDS011;47863;55.766;37.672;2023-05-23T12:19:38;6.13;;;3.42;;
61905;SDS011;47863;55.766;37.672;2023-05-23T12:22:05;6.45;;;3.55;;
61905;SDS011;47863;55.766;37.672;2023-05-23T12:24:33;6.45;;;2.92;;
61905;SDS011;47863;55.766;37.672;2023-05-23T12:27:00;5.47;;;2.92;;
61905;SDS011;47863;55.766;37.672;2023-05-23T12:29:31;7.90;;;3.90;;
61905;SDS011;47863;55.766;37.672;2023-05-23T12:31:58;6.68;;;3.63;;
61905;SDS011;47863;55.766;37.672;2023-05-23T12:34:25;7.05;;;3.70;;
61905;SDS011;47863;55.766;37.672;2023-05-23T12:36:54;5.47;;;3.63;;
61905;SDS011;47863;55.766;37.672;2023-05-23T12:39:24;7.10;;;3.53;;
61905;SDS011;47863;55.766;37.672;2023-05-23T12:41:52;6.75;;;3.33;;
61905;SDS011;47863;55.766;37.672;2023-05-23T12:44:20;7.03;;;3.72;;
61905;SDS011;47863;55.766;37.672;2023-05-23T12:46:46;5.68;;;3.38;;
61905;SDS011;47863;55.766;37.672;2023-05-23T12:49:12;5.43;;;3.30;;
61905;SDS011;47863;55.766;37.672;2023-05-23T12:51:38;7.97;;;3.28;;
61905;SDS011;47863;55.766;37.672;2023-05-23T12:54:05;7.78;;;4.60;;
61905;SDS011;47863;55.766;37.672;2023-05-23T12:56:32;5.00;;;3.00;;
61905;SDS011;47863;55.766;37.672;2023-05-23T12:58:58;4.80;;;2.65;;
61905;SDS011;47863;55.766;37.672;2023-05-23T13:01:26;4.20;;;2.38;;
61905;SDS011;47863;55.766;37.672;2023-05-23T13:03:51;5.60;;;2.67;;
61905;SDS011;47863;55.766;37.672;2023-05-23T13:06:17;5.53;;;2.78;;
61905;SDS011;47863;55.766;37.672;2023-05-23T13:08:43;4.90;;;2.90;;
61905;SDS011;47863;55.766;37.672;2023-05-23T13:11:08;4.30;;;2.80;;
61905;SDS011;47863;55.766;37.672;2023-05-23T13:13:34;5.10;;;2.90;;
61905;SDS011;47863;55.766;37.672;2023-05-23T13:16:01;5.15;;;2.55;;
61905;SDS011;47863;55.766;37.672;2023-05-23T13:18:27;5.50;;;3.28;;
61905;SDS011;47863;55.766;37.672;2023-05-23T13:20:53;8.48;;;3.30;;
61905;SDS011;47863;55.766;37.672;2023-05-23T13:23:18;5.75;;;2.88;;
61905;SDS011;47863;55.766;37.672;2023-05-23T13:25:44;7.90;;;3.20;;
61905;SDS011;47863;55.766;37.672;2023-05-23T13:28:10;5.90;;;3.20;;
61905;SDS011;47863;55.766;37.672;2023-05-23T13:30:35;7.45;;;3.60;;
61905;SDS011;47863;55.766;37.672;2023-05-23T13:33:02;9.40;;;3.38;;
61905;SDS011;47863;55.766;37.672;2023-05-23T13:35:27;7.75;;;3.67;;
61905;SDS011;47863;55.766;37.672;2023-05-23T13:37:53;6.30;;;3.42;;
61905;SDS011;47863;55.766;37.672;2023-05-23T13:40:19;6.63;;;3.35;;
61905;SDS011;47863;55.766;37.672;2023-05-23T13:42:47;6.78;;;3.17;;
61905;SDS011;47863;55.766;37.672;2023-05-23T13:45:17;10.15;;;3.50;;
61905;SDS011;47863;55.766;37.672;2023-05-23T13:47:43;5.43;;;2.90;;
61905;SDS011;47863;55.766;37.672;2023-05-23T13:50:10;7.70;;;3.40;;
61905;SDS011;47863;55.766;37.672;2023-05-23T13:52:36;7.10;;;3.35;;
61905;SDS011;47863;55.766;37.672;2023-05-23T13:55:03;7.15;;;3.58;;
61905;SDS011;47863;55.766;37.672;2023-05-23T13:57:30;7.22;;;3.70;;
61905;SDS011;47863;55.766;37.672;2023-05-23T13:59:55;8.20;;;3.85;;
61905;SDS011;47863;55.766;37.672;2023-05-23T14:02:21;9.00;;;3.50;;
61905;SDS011;47863;55.766;37.672;2023-05-23T14:04:47;5.72;;;3.15;;
61905;SDS011;47863;55.766;37.672;2023-05-23T14:07:14;5.05;;;2.95;;
61905;SDS011;47863;55.766;37.672;2023-05-23T14:09:40;7.18;;;3.40;;
61905;SDS011;47863;55.766;37.672;2023-05-23T14:12:05;6.15;;;2.95;;
61905;SDS011;47863;55.766;37.672;2023-05-23T14:14:31;7.10;;;3.92;;
61905;SDS011;47863;55.766;37.672;2023-05-23T14:16:57;6.20;;;3.30;;
61905;SDS011;47863;55.766;37.672;2023-05-23T14:19:23;5.07;;;3.00;;
61905;SDS011;47863;55.766;37.672;2023-05-23T14:21:48;5.65;;;3.03;;
61905;SDS011;47863;55.766;37.672;2023-05-23T14:24:14;5.63;;;2.95;;
61905;SDS011;47863;55.766;37.672;2023-05-23T14:26:40;5.90;;;3.15;;
61905;SDS011;47863;55.766;37.672;2023-05-23T14:29:05;6.75;;;3.35;;
61905;SDS011;47863;55.766;37.672;2023-05-23T14:31:31;5.95;;;3.20;;
61905;SDS011;47863;55.766;37.672;2023-05-23T14:33:56;7.05;;;3.47;;
61905;SDS011;47863;55.766;37.672;2023-05-23T14:36:23;6.93;;;3.85;;
61905;SDS011;47863;55.766;37.672;2023-05-23T14:38:50;9.75;;;3.17;;
61905;SDS011;47863;55.766;37.672;2023-05-23T14:41:15;8.45;;;3.55;;
61905;SDS011;47863;55.766;37.672;2023-05-23T14:43:42;7.97;;;3.15;;
61905;SDS011;47863;55.766;37.672;2023-05-23T14:46:07;7.05;;;3.08;;
61905;SDS011;47863;55.766;37.672;2023-05-23T14:48:33;6.10;;;2.97;;
61905;SDS011;47863;55.766;37.672;2023-05-23T14:50:59;5.32;;;2.85;;
61905;SDS011;47863;55.766;37.672;2023-05-23T14:53:26;6.70;;;3.03;;
61905;SDS011;47863;55.766;37.672;2023-05-23T14:55:52;5.88;;;3.08;;
61905;SDS011;47863;55.766;37.672;2023-05-23T14:58:18;8.52;;;3.28;;
61905;SDS011;47863;55.766;37.672;2023-05-23T15:00:45;9.57;;;3.42;;
61905;SDS011;47863;55.766;37.672;2023-05-23T15:03:12;7.15;;;3.00;;
61905;SDS011;47863;55.766;37.672;2023-05-23T15:05:38;5.97;;;2.63;;